Time;durP1;ratioP1;P1;durP2;ratioP2;P2;SDS_P1;SDS_P2;PMS_P1;PMS_P2;Temp;Humidity;BMP_temperature;BMP_pressure;BME280_temperature;BME280_humidity;BME280_pressure;Samples;Min_cycle;Max_cycle;Signal;HPM_P1;HPM_P2
2023/07/21 00:00:14;;;;;;;2.05;0.98;;;13.10;99.90;;;;;;6305637;22;20050;-85
2023/07/21 00:02:41;;;;;;;1.67;0.80;;;12.90;99.90;;;;;;6306755;22;20019;-86
2023/07/21 00:05:08;;;;;;;2.40;0.90;;;12.90;99.90;;;;;;6304923;22;20023;-85
2023/07/21 00:07:35;;;;;;;1.50;0.70;;;12.80;99.90;;;;;;6279753;22;20019;-86
2023/07/21 00:10:08;;;;;;;1.10;0.68;;;12.80;99.90;;;;;;6306533;22;20469;-86
2023/07/21 00:12:47;;;;;;;1.80;0.70;;;12.80;99.90;;;;;;6306193;22;20018;-85
2023/07/21 00:15:18;;;;;;;1.42;0.80;;;12.80;99.90;;;;;;6308469;22;20019;-85
2023/07/21 00:17:46;;;;;;;1.50;0.70;;;12.80;99.90;;;;;;6312885;22;20018;-86
2023/07/21 00:20:15;;;;;;;2.95;0.95;;;12.70;99.90;;;;;;6312774;22;20505;-85
2023/07/21 00:22:41;;;;;;;1.58;0.75;;;12.70;99.90;;;;;;6312648;22;20025;-85
2023/07/21 00:25:10;;;;;;;3.30;0.70;;;12.70;99.90;;;;;;6286739;22;20022;-86
2023/07/21 00:27:41;;;;;;;5.20;0.82;;;12.70;99.90;;;;;;6340276;22;20025;-85
2023/07/21 00:30:08;;;;;;;2.15;1.05;;;12.60;99.90;;;;;;6286622;22;20488;-85
2023/07/21 00:32:38;;;;;;;1.38;0.80;;;12.60;99.90;;;;;;6286284;22;20029;-85
2023/07/21 00:35:08;;;;;;;1.35;0.82;;;12.50;99.90;;;;;;6312453;22;20015;-86
2023/07/21 00:37:38;;;;;;;4.20;1.70;;;12.60;99.90;;;;;;6312252;22;20076;-85
2023/07/21 00:40:05;;;;;;;3.53;1.00;;;12.50;99.90;;;;;;6312313;22;20026;-87
2023/07/21 00:42:31;;;;;;;1.63;0.90;;;12.50;99.90;;;;;;6311625;22;20011;-86
2023/07/21 00:45:00;;;;;;;3.95;1.23;;;12.50;99.90;;;;;;6339088;22;20023;-86
2023/07/21 00:47:28;;;;;;;3.38;1.00;;;12.50;99.90;;;;;;6286417;22;20022;-85
2023/07/21 00:49:57;;;;;;;1.95;0.90;;;12.50;99.90;;;;;;6339951;22;20015;-86
2023/07/21 00:52:27;;;;;;;1.42;0.80;;;12.50;99.90;;;;;;6312306;22;20030;-85
2023/07/21 00:54:52;;;;;;;1.88;0.90;;;12.50;99.90;;;;;;6339683;22;20015;-86
2023/07/21 00:57:20;;;;;;;2.08;0.85;;;12.50;99.90;;;;;;6311964;22;20323;-86
2023/07/21 00:59:46;;;;;;;2.85;1.00;;;12.40;99.90;;;;;;6312126;22;20129;-86
2023/07/21 01:02:12;;;;;;;2.25;0.60;;;12.40;99.90;;;;;;6312107;22;20484;-86
2023/07/21 01:04:40;;;;;;;2.13;1.00;;;12.40;99.90;;;;;;6312184;22;20011;-86
2023/07/21 01:07:09;;;;;;;1.70;0.90;;;12.40;99.90;;;;;;6312235;22;20018;-86
2023/07/21 01:09:38;;;;;;;2.10;0.70;;;12.30;99.90;;;;;;6311851;22;20085;-86
2023/07/21 01:12:06;;;;;;;1.50;0.80;;;12.30;99.90;;;;;;6340014;22;20086;-87
2023/07/21 01:14:36;;;;;;;2.97;0.90;;;12.30;99.90;;;;;;6285587;22;20019;-86
2023/07/21 01:17:03;;;;;;;1.35;0.80;;;12.30;99.90;;;;;;6306619;22;20026;-86
2023/07/21 01:19:30;;;;;;;3.45;0.88;;;12.20;99.90;;;;;;6305931;22;20029;-85
2023/07/21 01:22:23;;;;;;;2.70;0.80;;;12.20;99.90;;;;;;6306841;22;20011;-86
2023/07/21 01:24:51;;;;;;;1.35;0.80;;;12.20;99.90;;;;;;6306893;22;20015;-87
2023/07/21 01:27:22;;;;;;;3.60;0.93;;;12.20;99.90;;;;;;6306291;22;20090;-86
2023/07/21 01:29:50;;;;;;;1.00;0.60;;;12.10;99.90;;;;;;6308521;22;20023;-86
2023/07/21 01:32:25;;;;;;;1.27;0.50;;;12.20;99.90;;;;;;6306562;22;20015;-86
2023/07/21 01:34:55;;;;;;;1.35;0.60;;;12.00;99.90;;;;;;6308595;22;20485;-85
2023/07/21 01:37:23;;;;;;;1.00;0.50;;;12.10;99.90;;;;;;6305844;22;20017;-86
2023/07/21 01:39:51;;;;;;;1.80;0.70;;;12.00;99.90;;;;;;6279767;22;20007;-86
2023/07/21 01:42:19;;;;;;;1.50;0.73;;;12.10;99.90;;;;;;6306428;22;20022;-85
2023/07/21 01:44:50;;;;;;;1.65;0.70;;;12.00;99.90;;;;;;6306245;22;20088;-86
2023/07/21 01:47:16;;;;;;;1.15;0.60;;;11.80;99.90;;;;;;6280792;22;20099;-86
2023/07/21 01:49:42;;;;;;;3.10;0.50;;;11.90;99.90;;;;;;6306356;22;20047;-86
2023/07/21 01:52:08;;;;;;;1.33;0.70;;;11.90;99.90;;;;;;6280531;22;20047;-86
2023/07/21 01:54:54;;;;;;;1.85;0.70;;;11.80;99.90;;;;;;6305999;22;20342;-86
2023/07/21 01:57:46;;;;;;;1.17;0.60;;;11.80;99.90;;;;;;6308381;22;20015;-85
2023/07/21 02:00:13;;;;;;;1.75;0.88;;;11.80;99.90;;;;;;6307815;22;20011;-86
2023/07/21 02:02:47;;;;;;;1.63;0.93;;;11.70;99.90;;;;;;6306205;22;20019;-86
2023/07/21 02:05:20;;;;;;;2.85;0.85;;;11.70;99.90;;;;;;6308244;22;20088;-85
2023/07/21 02:07:46;;;;;;;2.00;1.00;;;11.80;99.90;;;;;;6306686;22;20096;-85
2023/07/21 02:10:12;;;;;;;2.47;0.93;;;11.70;99.90;;;;;;6308004;22;20386;-86
2023/07/21 02:12:41;;;;;;;1.23;0.80;;;11.70;99.90;;;;;;6305698;22;20019;-86
2023/07/21 02:15:10;;;;;;;1.38;0.80;;;11.80;99.90;;;;;;6307328;22;20446;-86
2023/07/21 02:17:38;;;;;;;1.42;0.80;;;11.80;99.90;;;;;;6305957;22;20057;-86
2023/07/21 02:20:11;;;;;;;3.92;1.00;;;11.70;99.90;;;;;;6280177;22;20019;-86
2023/07/21 02:22:41;;;;;;;2.53;1.15;;;11.60;99.90;;;;;;6306160;22;20024;-86
2023/07/21 02:25:11;;;;;;;1.92;0.90;;;11.60;99.90;;;;;;6308135;22;20103;-85
2023/07/21 02:27:39;;;;;;;3.13;1.10;;;11.60;99.90;;;;;;6308381;22;20171;-86
2023/07/21 02:30:06;;;;;;;1.63;0.80;;;11.60;99.90;;;;;;6280005;22;20022;-86
2023/07/21 02:32:32;;;;;;;1.50;0.70;;;11.60;99.90;;;;;;6308039;22;20034;-86
2023/07/21 02:35:00;;;;;;;1.60;0.57;;;11.60;99.90;;;;;;6307474;22;20023;-86
2023/07/21 02:37:26;;;;;;;4.15;0.70;;;11.60;99.90;;;;;;6280201;22;20022;-86
2023/07/21 02:39:52;;;;;;;0.93;0.70;;;11.40;99.90;;;;;;6279775;22;20022;-86
2023/07/21 02:42:18;;;;;;;1.50;0.60;;;11.60;99.90;;;;;;6280201;22;20022;-86
2023/07/21 02:44:44;;;;;;;0.68;0.50;;;11.50;99.90;;;;;;6279719;22;20015;-86
2023/07/21 02:47:14;;;;;;;1.05;0.47;;;11.50;99.90;;;;;;6306144;22;20015;-86
2023/07/21 02:49:40;;;;;;;1.42;0.70;;;11.60;99.90;;;;;;6280385;22;20012;-86
2023/07/21 02:52:06;;;;;;;1.00;0.57;;;11.50;99.90;;;;;;6305627;22;20457;-86
2023/07/21 02:54:32;;;;;;;2.20;0.75;;;11.40;99.90;;;;;;6305827;22;20026;-86
2023/07/21 02:56:59;;;;;;;0.75;0.50;;;11.40;99.90;;;;;;6279500;22;20026;-86
2023/07/21 02:59:26;;;;;;;0.40;0.30;;;11.80;99.90;;;;;;6308130;22;20015;-86
2023/07/21 03:01:55;;;;;;;0.22;0.22;;;11.40;99.90;;;;;;6279910;22;20019;-86
2023/07/21 03:04:42;;;;;;;0.57;0.30;;;11.30;99.90;;;;;;6305244;22;20016;-86
2023/07/21 03:07:08;;;;;;;0.45;0.30;;;11.30;99.90;;;;;;6305631;22;20050;-86
2023/07/21 03:09:35;;;;;;;0.65;0.38;;;11.30;99.90;;;;;;6306275;22;20026;-86
2023/07/21 03:12:01;;;;;;;0.68;0.40;;;11.20;99.90;;;;;;6305787;22;20015;-85
2023/07/21 03:14:27;;;;;;;0.95;0.40;;;11.20;99.90;;;;;;6305168;22;20342;-86
2023/07/21 03:16:53;;;;;;;0.60;0.45;;;11.20;99.90;;;;;;6305639;22;20019;-86
2023/07/21 03:19:19;;;;;;;0.50;0.32;;;11.10;99.90;;;;;;6305471;22;20446;-86
2023/07/21 03:21:49;;;;;;;0.95;0.40;;;11.10;99.90;;;;;;6279849;22;20011;-85
2023/07/21 03:24:15;;;;;;;0.63;0.30;;;11.30;99.90;;;;;;6305368;22;20019;-86
2023/07/21 03:26:41;;;;;;;1.40;0.30;;;11.10;99.90;;;;;;6305467;22;20129;-85
2023/07/21 03:29:07;;;;;;;0.30;0.30;;;11.10;99.90;;;;;;6279452;22;20019;-85
2023/07/21 03:31:34;;;;;;;0.70;0.40;;;11.00;99.90;;;;;;6279606;22;20019;-86
2023/07/21 03:34:00;;;;;;;0.43;0.40;;;11.00;99.90;;;;;;6305172;22;20026;-86
2023/07/21 03:36:28;;;;;;;0.38;0.30;;;11.00;99.90;;;;;;6304977;22;20079;-86
2023/07/21 03:38:54;;;;;;;0.95;0.50;;;10.90;99.90;;;;;;6280032;22;20023;-86
2023/07/21 03:41:21;;;;;;;0.70;0.50;;;10.90;99.90;;;;;;6306059;22;20011;-86
2023/07/21 03:43:48;;;;;;;0.93;0.60;;;10.90;99.90;;;;;;6307211;22;20023;-85
2023/07/21 03:46:14;;;;;;;0.77;0.50;;;11.00;99.90;;;;;;6278384;22;20019;-85
2023/07/21 03:48:39;;;;;;;0.93;0.47;;;11.00;99.90;;;;;;6305163;22;20053;-86
2023/07/21 03:51:08;;;;;;;0.63;0.50;;;11.00;99.90;;;;;;6279874;22;20008;-85
2023/07/21 03:53:33;;;;;;;1.27;0.60;;;11.00;99.90;;;;;;6305060;22;20023;-85
2023/07/21 03:55:59;;;;;;;0.90;0.45;;;11.00;99.90;;;;;;6278897;22;20011;-86
2023/07/21 03:58:28;;;;;;;0.90;0.40;;;11.00;99.90;;;;;;6280044;22;20514;-86
2023/07/21 04:00:55;;;;;;;1.20;0.60;;;11.10;99.90;;;;;;6307665;22;20015;-86
2023/07/21 04:03:24;;;;;;;0.90;0.60;;;11.10;99.90;;;;;;6305496;22;20055;-86
2023/07/21 04:05:51;;;;;;;0.98;0.40;;;11.10;99.90;;;;;;6305267;22;20046;-86
2023/07/21 04:08:18;;;;;;;0.55;0.40;;;11.10;99.90;;;;;;6304761;22;20015;-86
2023/07/21 04:10:46;;;;;;;0.40;0.30;;;11.20;99.90;;;;;;6280125;22;20027;-86
2023/07/21 04:13:12;;;;;;;0.35;0.30;;;11.20;99.90;;;;;;6279582;22;20062;-86
2023/07/21 04:15:38;;;;;;;0.30;0.30;;;11.20;99.90;;;;;;6311763;22;20390;-86
2023/07/21 04:18:04;;;;;;;0.60;0.30;;;11.20;99.90;;;;;;6310893;22;20021;-86
2023/07/21 04:20:31;;;;;;;1.05;0.50;;;11.20;99.90;;;;;;6339307;22;20090;-86
2023/07/21 04:22:57;;;;;;;0.98;0.47;;;11.20;99.90;;;;;;6338450;22;20368;-86
2023/07/21 04:25:23;;;;;;;1.02;0.55;;;11.10;99.90;;;;;;6310907;22;20022;-86
2023/07/21 04:27:54;;;;;;;0.93;0.50;;;11.20;99.90;;;;;;6310892;22;20015;-86
2023/07/21 04:30:20;;;;;;;1.48;0.60;;;11.20;99.90;;;;;;6285858;22;20014;-86
2023/07/21 04:32:46;;;;;;;1.35;0.70;;;11.20;99.90;;;;;;6311543;22;20329;-86
2023/07/21 04:35:12;;;;;;;0.73;0.45;;;11.20;99.90;;;;;;6311569;22;20022;-86
2023/07/21 04:37:38;;;;;;;1.85;0.60;;;11.30;99.90;;;;;;6310699;22;20018;-86
2023/07/21 04:40:06;;;;;;;0.70;0.40;;;11.40;99.90;;;;;;6309548;22;20018;-86
2023/07/21 04:42:32;;;;;;;0.68;0.40;;;11.50;99.90;;;;;;6284659;22;20098;-86
2023/07/21 04:44:59;;;;;;;0.95;0.57;;;11.50;99.90;;;;;;6309853;22;20441;-86
2023/07/21 04:47:28;;;;;;;1.70;0.50;;;11.60;99.90;;;;;;6284893;22;20330;-86
2023/07/21 04:49:54;;;;;;;1.25;0.50;;;11.70;99.90;;;;;;6310238;22;20148;-86
2023/07/21 04:52:20;;;;;;;1.15;0.50;;;11.70;99.90;;;;;;6284354;22;20015;-86
2023/07/21 04:54:45;;;;;;;1.52;0.50;;;11.80;99.90;;;;;;6337824;22;20326;-86
2023/07/21 04:57:11;;;;;;;0.88;0.52;;;11.90;99.90;;;;;;6338136;22;20011;-86
2023/07/21 04:59:37;;;;;;;2.45;0.60;;;11.90;99.90;;;;;;6310835;22;20079;-86
2023/07/21 05:02:03;;;;;;;1.83;0.60;;;12.00;99.90;;;;;;6312082;22;20026;-86
2023/07/21 05:04:29;;;;;;;0.93;0.57;;;12.10;99.90;;;;;;6312369;22;20054;-86
2023/07/21 05:06:55;;;;;;;2.20;0.50;;;12.10;99.90;;;;;;6312794;22;20499;-86
2023/07/21 05:09:21;;;;;;;2.92;0.43;;;12.20;99.90;;;;;;6312147;22;20454;-86
2023/07/21 05:11:50;;;;;;;0.70;0.60;;;12.30;99.90;;;;;;6339316;22;20023;-86
2023/07/21 05:14:18;;;;;;;1.55;0.75;;;12.40;99.90;;;;;;6311751;22;20076;-86
2023/07/21 05:16:43;;;;;;;0.88;0.40;;;12.50;99.90;;;;;;6339382;22;20015;-86
2023/07/21 05:19:10;;;;;;;0.95;0.50;;;12.60;99.90;;;;;;6311956;22;20075;-86
2023/07/21 05:21:36;;;;;;;0.98;0.65;;;12.70;99.90;;;;;;6312300;22;20054;-86
2023/07/21 05:24:04;;;;;;;0.90;0.50;;;12.70;99.90;;;;;;6311970;22;20034;-85
2023/07/21 05:26:36;;;;;;;1.38;0.50;;;12.80;99.90;;;;;;6312420;22;20015;-84
2023/07/21 05:29:04;;;;;;;1.15;0.50;;;12.90;99.90;;;;;;6339445;22;20018;-86
2023/07/21 05:31:30;;;;;;;0.85;0.50;;;12.90;99.90;;;;;;6339434;22;20022;-86
2023/07/21 05:33:57;;;;;;;0.88;0.50;;;13.00;99.90;;;;;;6312193;22;20019;-86
2023/07/21 05:36:24;;;;;;;0.70;0.50;;;13.20;99.90;;;;;;6312155;22;20019;-85
2023/07/21 05:38:51;;;;;;;0.80;0.47;;;13.30;99.90;;;;;;6311776;22;20019;-85
2023/07/21 05:41:18;;;;;;;0.77;0.43;;;13.40;99.90;;;;;;6285723;22;20594;-86
2023/07/21 05:43:44;;;;;;;2.35;0.50;;;13.50;99.90;;;;;;6339384;22;20023;-86
2023/07/21 05:46:10;;;;;;;1.55;0.50;;;13.60;99.90;;;;;;6311449;22;20021;-86
2023/07/21 05:48:36;;;;;;;1.65;0.60;;;13.70;99.90;;;;;;6339464;22;20338;-86
2023/07/21 05:51:10;;;;;;;1.08;0.50;;;13.80;99.90;;;;;;6339698;22;20014;-86
2023/07/21 05:53:36;;;;;;;2.00;0.93;;;13.80;99.90;;;;;;6311090;22;20484;-86
2023/07/21 05:59:49;;;;;;;2.42;0.93;;;14.00;99.90;;;;;;6339559;22;20018;-85
2023/07/21 06:02:14;;;;;;;1.13;0.60;;;14.10;99.90;;;;;;6311980;22;20014;-85
2023/07/21 06:04:58;;;;;;;0.73;0.50;;;14.20;99.90;;;;;;6285397;22;20094;-87
2023/07/21 06:08:06;;;;;;;0.75;0.40;;;14.30;99.90;;;;;;6340290;22;20015;-92
2023/07/21 06:11:26;;;;;;;1.13;0.60;;;14.40;99.90;;;;;;6284414;22;20064;-90
2023/07/21 06:17:37;;;;;;;;;;;14.60;99.90;;;;;;6100358;23;20026;-90
2023/07/21 06:24:43;;;;;;;1.23;0.73;;;14.90;99.90;;;;;;6123973;23;20021;-90
2023/07/21 06:38:18;;;;;;;1.88;0.82;;;15.90;99.90;;;;;;6334403;22;20109;-90
2023/07/21 06:40:44;;;;;;;2.05;0.77;;;16.00;99.90;;;;;;6303491;22;20049;-89
2023/07/21 06:46:25;;;;;;;1.20;0.57;;;16.20;99.90;;;;;;6329343;22;20050;-85
2023/07/21 06:48:53;;;;;;;0.88;0.50;;;16.60;99.90;;;;;;6339160;22;20011;-86
2023/07/21 06:51:19;;;;;;;1.23;0.60;;;16.80;99.90;;;;;;6339664;22;20069;-85
2023/07/21 06:53:45;;;;;;;1.00;0.57;;;17.10;99.90;;;;;;6311459;22;20020;-83
2023/07/21 06:56:13;;;;;;;2.03;0.80;;;17.30;99.90;;;;;;6311010;22;20041;-83
2023/07/21 06:58:42;;;;;;;0.80;0.60;;;17.50;99.90;;;;;;6285112;22;20021;-85
2023/07/21 07:01:09;;;;;;;1.88;0.40;;;17.70;99.90;;;;;;6285319;22;20047;-84
2023/07/21 07:03:35;;;;;;;0.65;0.50;;;18.00;99.90;;;;;;6285193;22;20015;-84
2023/07/21 07:06:00;;;;;;;0.55;0.38;;;18.00;99.90;;;;;;6338925;22;20015;-84
2023/07/21 07:08:26;;;;;;;0.60;0.50;;;18.20;99.90;;;;;;6285122;22;20044;-83
2023/07/21 07:10:52;;;;;;;0.68;0.47;;;18.40;99.90;;;;;;6310980;22;20453;-81
2023/07/21 07:13:18;;;;;;;0.85;0.50;;;18.60;99.90;;;;;;6338301;22;20015;-84
2023/07/21 07:15:52;;;;;;;0.50;0.40;;;18.70;99.90;;;;;;6311076;22;20083;-83
2023/07/21 07:18:18;;;;;;;3.03;0.50;;;18.90;99.90;;;;;;6310484;22;20022;-83
2023/07/21 07:20:51;;;;;;;0.68;0.40;;;19.00;99.90;;;;;;6310664;22;20022;-82
2023/07/21 07:23:18;;;;;;;0.82;0.50;;;19.00;99.90;;;;;;6338570;22;20019;-83
2023/07/21 07:25:56;;;;;;;0.98;0.40;;;19.00;99.90;;;;;;6338231;22;20026;-83
2023/07/21 07:28:23;;;;;;;0.77;0.32;;;19.20;99.90;;;;;;6311453;22;20019;-82
2023/07/21 07:30:49;;;;;;;1.42;0.47;;;19.20;99.90;;;;;;6338406;22;20030;-82
2023/07/21 07:33:16;;;;;;;0.98;0.30;;;19.40;99.90;;;;;;6310463;22;20023;-82
2023/07/21 07:35:52;;;;;;;1.80;0.30;;;19.40;99.90;;;;;;6338552;22;20019;-82
2023/07/21 07:38:20;;;;;;;0.80;0.40;;;19.50;99.90;;;;;;6310651;22;20015;-82
2023/07/21 07:40:47;;;;;;;0.60;0.40;;;19.50;99.90;;;;;;6311092;22;20337;-82
2023/07/21 07:43:14;;;;;;;1.27;0.47;;;19.60;99.90;;;;;;6338686;22;20021;-82
2023/07/21 07:45:40;;;;;;;0.55;0.30;;;19.70;99.90;;;;;;6337887;22;20015;-82
2023/07/21 07:48:07;;;;;;;1.25;0.30;;;19.80;99.90;;;;;;6338732;22;20071;-82
2023/07/21 07:50:39;;;;;;;0.50;0.30;;;19.90;99.90;;;;;;6310631;22;20011;-82
2023/07/21 07:53:08;;;;;;;0.70;0.35;;;19.90;99.90;;;;;;6310462;22;20018;-83
2023/07/21 07:55:42;;;;;;;1.20;0.40;;;20.00;99.90;;;;;;6338337;22;20080;-82
2023/07/21 07:58:09;;;;;;;1.75;0.20;;;20.00;99.90;;;;;;6310205;22;20015;-82
2023/07/21 08:00:36;;;;;;;1.35;0.40;;;20.10;99.90;;;;;;6338447;22;20086;-82
2023/07/21 08:03:04;;;;;;;2.60;0.50;;;20.20;99.90;;;;;;6338243;22;20046;-83
2023/07/21 08:05:30;;;;;;;0.77;0.30;;;20.20;99.90;;;;;;6338563;22;20015;-82
2023/07/21 08:07:58;;;;;;;0.80;0.40;;;20.30;99.90;;;;;;6338740;22;20133;-83
2023/07/21 08:10:27;;;;;;;3.55;0.40;;;20.30;99.90;;;;;;6338734;22;20041;-82
2023/07/21 08:12:54;;;;;;;0.35;0.30;;;20.30;99.90;;;;;;6338489;22;20352;-82
2023/07/21 08:15:21;;;;;;;2.33;0.50;;;20.40;99.90;;;;;;6338156;22;20323;-82
2023/07/21 08:17:50;;;;;;;1.23;0.30;;;20.30;99.90;;;;;;6284655;22;20488;-82
2023/07/21 08:20:18;;;;;;;0.30;0.30;;;20.30;99.90;;;;;;6310498;22;20464;-83
2023/07/21 08:22:48;;;;;;;1.58;0.40;;;20.30;99.90;;;;;;6284701;22;20019;-83
2023/07/21 08:25:15;;;;;;;0.60;0.32;;;20.40;99.90;;;;;;6338369;22;20021;-83
2023/07/21 08:27:41;;;;;;;0.68;0.30;;;20.60;99.90;;;;;;6310136;22;20486;-82
2023/07/21 08:30:10;;;;;;;1.80;0.40;;;20.80;99.90;;;;;;6338677;22;20041;-82
2023/07/21 08:32:43;;;;;;;1.02;0.70;;;20.80;99.90;;;;;;6338357;22;20015;-82
2023/07/21 08:35:10;;;;;;;1.42;0.40;;;20.90;99.90;;;;;;6339919;22;20442;-83
2023/07/21 08:37:36;;;;;;;0.30;0.30;;;21.10;99.90;;;;;;6340334;22;20016;-82
2023/07/21 08:40:03;;;;;;;0.30;0.20;;;21.30;99.90;;;;;;6340000;22;20078;-81
2023/07/21 08:42:30;;;;;;;0.60;0.30;;;21.60;99.90;;;;;;6340315;22;20011;-82
2023/07/21 08:44:57;;;;;;;0.50;0.30;;;21.70;99.90;;;;;;6339600;22;20442;-82
2023/07/21 08:47:23;;;;;;;1.00;0.30;;;21.80;99.90;;;;;;6340077;22;20319;-82
2023/07/21 08:49:49;;;;;;;0.85;0.35;;;22.00;99.90;;;;;;6340123;22;20050;-82
2023/07/21 08:52:15;;;;;;;0.85;0.30;;;22.10;99.90;;;;;;6340066;22;20345;-82
2023/07/21 08:54:43;;;;;;;0.52;0.30;;;22.30;99.90;;;;;;6311930;22;20027;-82
2023/07/21 08:57:11;;;;;;;0.80;0.35;;;22.40;99.90;;;;;;6339851;22;20010;-82
2023/07/21 08:59:37;;;;;;;1.40;0.40;;;22.50;99.90;;;;;;6339588;22;20011;-81
2023/07/21 09:02:03;;;;;;;0.75;0.20;;;22.50;99.90;;;;;;6312243;22;20046;-82
2023/07/21 09:04:29;;;;;;;0.60;0.52;;;22.50;99.90;;;;;;6340095;22;20054;-82
2023/07/21 09:06:59;;;;;;;0.47;0.28;;;22.40;99.90;;;;;;6339983;22;20098;-82
2023/07/21 09:09:27;;;;;;;0.50;0.30;;;22.40;99.80;;;;;;6312146;22;20023;-82
2023/07/21 09:12:04;;;;;;;0.88;0.30;;;22.30;99.90;;;;;;6311972;22;20017;-82
2023/07/21 09:14:38;;;;;;;0.80;0.30;;;22.20;99.90;;;;;;6311760;22;20029;-82
2023/07/21 09:17:06;;;;;;;0.30;0.20;;;22.10;99.90;;;;;;6311865;22;20023;-83
2023/07/21 09:19:55;;;;;;;0.45;0.30;;;22.20;99.90;;;;;;6311857;22;20038;-83
2023/07/21 09:22:24;;;;;;;0.73;0.20;;;22.50;99.20;;;;;;6339456;22;20437;-83
2023/07/21 09:24:51;;;;;;;0.43;0.22;;;22.40;99.90;;;;;;6339816;22;20011;-83
2023/07/21 09:27:18;;;;;;;0.47;0.20;;;22.50;99.70;;;;;;6339844;22;20759;-83
2023/07/21 09:29:45;;;;;;;0.80;0.32;;;22.80;99.90;;;;;;6339553;22;20364;-82
2023/07/21 09:32:15;;;;;;;1.23;0.25;;;22.80;99.10;;;;;;6339790;22;20019;-83
2023/07/21 09:35:01;;;;;;;1.35;0.32;;;23.10;99.70;;;;;;6311856;22;20021;-82
2023/07/21 09:37:29;;;;;;;0.63;0.20;;;23.10;98.10;;;;;;6339810;22;20015;-82
2023/07/21 09:39:57;;;;;;;0.50;0.22;;;23.20;99.30;;;;;;6339597;22;20341;-83
2023/07/21 09:42:24;;;;;;;0.40;0.20;;;23.40;98.30;;;;;;6339571;22;20050;-82
2023/07/21 09:44:51;;;;;;;0.38;0.17;;;23.60;98.70;;;;;;6310970;22;20058;-82
2023/07/21 09:47:18;;;;;;;0.30;0.30;;;23.80;97.70;;;;;;6338865;22;20019;-83
2023/07/21 09:49:44;;;;;;;0.50;0.20;;;23.90;97.10;;;;;;6339076;22;20446;-83
2023/07/21 09:52:16;;;;;;;0.30;0.20;;;24.00;97.30;;;;;;6285714;22;20018;-83
2023/07/21 09:54:45;;;;;;;1.25;0.40;;;24.00;97.90;;;;;;6338589;22;20018;-83
2023/07/21 09:57:17;;;;;;;1.00;0.45;;;23.80;96.50;;;;;;6311700;22;20449;-82
2023/07/21 09:59:47;;;;;;;0.90;0.30;;;23.60;96.20;;;;;;6339565;22;20015;-82
2023/07/21 10:02:13;;;;;;;0.70;0.47;;;23.50;97.90;;;;;;6338635;22;20014;-83
2023/07/21 10:04:39;;;;;;;0.88;0.30;;;23.50;97.10;;;;;;6339470;22;20053;-83
2023/07/21 10:07:06;;;;;;;1.02;0.40;;;23.70;99.10;;;;;;6310821;22;20019;-82
2023/07/21 10:09:33;;;;;;;0.60;0.20;;;23.90;98.10;;;;;;6339656;22;20011;-88
2023/07/21 10:12:22;;;;;;;0.38;0.30;;;24.30;98.30;;;;;;6311641;22;20014;-89
2023/07/21 10:14:51;;;;;;;0.75;0.30;;;24.30;96.50;;;;;;6285874;22;20019;-87
2023/07/21 10:17:57;;;;;;;1.20;0.40;;;24.10;96.50;;;;;;6312742;22;20022;-89
2023/07/21 10:20:42;;;;;;;0.70;0.45;;;24.00;96.20;;;;;;6179688;23;20043;-88
2023/07/21 10:23:09;;;;;;;2.03;0.30;;;23.80;97.40;;;;;;6158496;23;20025;-89
2023/07/21 10:25:56;;;;;;;1.25;0.32;;;23.80;98.40;;;;;;6183235;23;20071;-87
2023/07/21 10:28:55;;;;;;;;;;;;;;;;;;;;;
2023/07/21 10:34:43;;;;;;;0.93;0.40;;;23.60;97.60;;;;;;6069927;23;20066;-88
2023/07/21 10:37:09;;;;;;;0.40;0.30;;;23.60;98.20;;;;;;6094140;23;20018;-91
2023/07/21 10:39:42;;;;;;;0.30;0.22;;;23.60;98.10;;;;;;6070309;23;20065;-90
2023/07/21 10:42:11;;;;;;;0.90;0.20;;;23.50;97.50;;;;;;6094283;23;20022;-87
2023/07/21 10:44:45;;;;;;;0.68;0.30;;;23.40;96.80;;;;;;6070784;23;20026;-89
2023/07/21 10:47:23;;;;;;;0.30;0.20;;;23.40;97.40;;;;;;6047425;23;20026;-90
2023/07/21 10:49:49;;;;;;;0.40;0.20;;;23.30;98.10;;;;;;6099146;23;20141;-87
2023/07/21 10:52:22;;;;;;;0.45;0.20;;;23.20;97.80;;;;;;6100868;23;20054;-88
2023/07/21 10:54:48;;;;;;;0.60;0.28;;;23.00;97.50;;;;;;6099861;23;20381;-88
2023/07/21 10:57:22;;;;;;;0.45;0.30;;;22.90;97.70;;;;;;6122788;23;20021;-89
2023/07/21 11:00:41;;;;;;;0.40;0.30;;;22.90;99.40;;;;;;6161418;23;20017;-88
2023/07/21 11:03:10;;;;;;;0.45;0.30;;;22.60;99.90;;;;;;6152878;23;20448;-84
2023/07/21 11:05:36;;;;;;;0.47;0.30;;;22.40;99.90;;;;;;6126707;23;20073;-84
2023/07/21 11:08:02;;;;;;;1.17;0.45;;;22.30;99.90;;;;;;6153508;23;20103;-84
2023/07/21 11:10:33;;;;;;;0.73;0.30;;;22.20;99.90;;;;;;6187507;23;20017;-84
2023/07/21 11:12:59;;;;;;;0.57;0.40;;;22.40;99.90;;;;;;6162325;23;20356;-84
2023/07/21 11:15:25;;;;;;;0.52;0.30;;;22.50;99.90;;;;;;6187163;23;20031;-84
2023/07/21 11:18:02;;;;;;;0.50;0.30;;;22.90;99.90;;;;;;6187375;23;20013;-86
2023/07/21 11:20:28;;;;;;;1.45;0.40;;;23.00;99.90;;;;;;6187650;23;20025;-84
2023/07/21 11:23:04;;;;;;;;;;;;;;;;;;;;;
2023/07/21 11:25:32;;;;;;;0.63;0.30;;;22.70;99.90;;;;;;6311932;22;20015;-89
2023/07/21 11:28:11;;;;;;;1.00;0.40;;;22.70;99.90;;;;;;6311929;22;20015;-87
2023/07/21 11:30:40;;;;;;;0.75;0.40;;;22.80;99.90;;;;;;6303797;22;20022;-86
2023/07/21 11:33:18;;;;;;;0.82;0.35;;;23.10;99.90;;;;;;6247118;22;20469;-88
2023/07/21 11:35:52;;;;;;;3.15;0.55;;;23.30;99.90;;;;;;6249211;22;20128;-89
2023/07/21 11:38:39;;;;;;;0.57;0.40;;;23.70;99.50;;;;;;6224023;22;20049;-89
2023/07/21 11:41:07;;;;;;;0.65;0.40;;;23.70;99.00;;;;;;6249515;22;20016;-88
2023/07/21 11:43:55;;;;;;;0.80;0.30;;;23.60;99.20;;;;;;6249886;22;20098;-89
2023/07/21 11:46:26;;;;;;;1.00;0.40;;;23.50;98.90;;;;;;6249392;22;20016;-88
2023/07/21 11:49:00;;;;;;;1.88;0.50;;;23.40;98.80;;;;;;6276156;22;20043;-88
2023/07/21 11:51:26;;;;;;;2.25;0.22;;;23.30;99.90;;;;;;6277379;22;20019;-88
2023/07/21 11:53:52;;;;;;;1.23;0.50;;;23.40;98.80;;;;;;6250366;22;20087;-87
2023/07/21 11:56:19;;;;;;;2.22;0.40;;;23.60;98.00;;;;;;6277017;22;20764;-86
2023/07/21 11:58:45;;;;;;;0.60;0.40;;;23.90;97.90;;;;;;6276899;22;20020;-87
2023/07/21 12:01:16;;;;;;;2.35;0.50;;;24.10;96.70;;;;;;6250951;22;20023;-87
2023/07/21 12:03:42;;;;;;;1.73;0.60;;;24.20;97.10;;;;;;6279396;22;20020;-89
2023/07/21 12:06:10;;;;;;;1.70;0.70;;;24.10;96.30;;;;;;6249798;22;20018;-87
2023/07/21 12:08:38;;;;;;;1.50;0.60;;;23.60;95.70;;;;;;6248658;22;20019;-87
2023/07/21 12:11:16;;;;;;;2.72;0.70;;;22.70;95.80;;;;;;6223708;22;20484;-89
2023/07/21 12:13:48;;;;;;;1.00;0.50;;;21.90;97.30;;;;;;6225091;22;20426;-88
2023/07/21 12:16:22;;;;;;;1.35;0.57;;;21.50;98.40;;;;;;6249075;22;20024;-90
2023/07/21 12:18:51;;;;;;;1.77;0.60;;;21.10;99.40;;;;;;6249573;22;20031;-89
2023/07/21 12:21:17;;;;;;;2.17;0.70;;;20.80;99.90;;;;;;6223436;22;20020;-88
2023/07/21 12:23:46;;;;;;;2.00;0.50;;;20.60;99.90;;;;;;6224891;22;20047;-91
2023/07/21 12:26:12;;;;;;;2.78;0.60;;;20.60;99.90;;;;;;6249676;22;20027;-89
2023/07/21 12:28:41;;;;;;;1.48;0.60;;;20.30;99.90;;;;;;6248846;22;20465;-88
2023/07/21 12:31:17;;;;;;;1.48;0.60;;;20.10;99.90;;;;;;6248704;22;20019;-89
2023/07/21 12:36:57;;;;;;;1.48;0.47;;;19.70;99.90;;;;;;6162690;23;20029;-88
2023/07/21 12:39:37;;;;;;;1.38;0.70;;;19.40;99.90;;;;;;6186596;23;20088;-89
2023/07/21 12:42:03;;;;;;;1.17;0.60;;;19.40;99.90;;;;;;6132962;23;20495;-87
2023/07/21 12:47:38;;;;;;;1.20;0.55;;;19.30;99.90;;;;;;6111733;23;20504;-89
2023/07/21 12:53:58;;;;;;;1.27;0.80;;;19.10;99.90;;;;;;6065226;23;20042;-85
2023/07/21 12:56:24;;;;;;;1.70;0.75;;;19.00;99.90;;;;;;6040550;23;20019;-85
2023/07/21 12:58:50;;;;;;;1.88;0.55;;;18.90;99.90;;;;;;6065085;23;20023;-84
2023/07/21 13:01:15;;;;;;;1.70;0.75;;;19.00;99.90;;;;;;6064729;23;20051;-86
2023/07/21 13:03:41;;;;;;;2.38;0.73;;;19.00;99.90;;;;;;6063765;23;20466;-85
2023/07/21 13:09:53;;;;;;;3.05;0.70;;;18.70;99.90;;;;;;6084328;23;20074;-89
2023/07/21 13:12:40;;;;;;;;;;;;;;;;;;;;;
2023/07/21 13:16:01;;;;;;;1.70;0.60;;;18.70;99.90;;;;;;6054319;23;20025;-91
2023/07/21 13:48:13;;;;;;;2.20;0.57;;;17.00;99.90;;;;;;6167775;22;3929410;-92
2023/07/21 13:50:39;;;;;;;0.55;0.40;;;16.90;99.90;;;;;;6334570;22;20014;-89
2023/07/21 13:53:05;;;;;;;1.02;0.40;;;16.90;99.90;;;;;;6328001;22;20018;-91
2023/07/21 13:55:33;;;;;;;1.52;0.40;;;17.00;99.90;;;;;;6354452;22;20394;-90
2023/07/21 13:57:58;;;;;;;0.52;0.32;;;16.90;99.90;;;;;;6380386;22;20048;-88
2023/07/21 14:00:24;;;;;;;0.82;0.50;;;16.80;99.90;;;;;;6325883;22;20014;-86
2023/07/21 14:02:50;;;;;;;0.90;0.60;;;16.80;99.90;;;;;;6350633;22;20026;-90
2023/07/21 14:05:19;;;;;;;0.60;0.40;;;16.90;99.90;;;;;;6352675;22;20014;-87
2023/07/21 14:07:44;;;;;;;0.38;0.30;;;16.90;99.90;;;;;;6379652;22;20018;-87
2023/07/21 14:10:11;;;;;;;2.83;0.63;;;17.00;99.90;;;;;;6351801;22;20405;-87
2023/07/21 14:12:36;;;;;;;1.40;0.68;;;16.80;99.90;;;;;;6324948;22;20014;-88
2023/07/21 14:15:07;;;;;;;0.80;0.50;;;16.90;99.90;;;;;;6348418;22;20029;-87